createdAt,value
2023-02-25T00:02:08.464Z,100463.94
2023-02-25T00:04:37.779Z,100455.97
2023-02-25T00:07:05.639Z,100455.22
2023-02-25T00:09:33.558Z,100456.91
2023-02-25T00:12:01.938Z,100457.31
2023-02-25T00:14:30.046Z,100455.50
2023-02-25T00:16:58.145Z,100458.59
2023-02-25T00:19:27.417Z,100458.31
2023-02-25T00:21:56.745Z,100459.88
2023-02-25T00:24:24.639Z,100461.06
2023-02-25T00:26:52.537Z,100463.31
2023-02-25T00:29:20.450Z,100471.66
2023-02-25T00:31:48.869Z,100487.75
2023-02-25T00:34:17.790Z,100477.31
2023-02-25T00:36:46.087Z,100482.28
2023-02-25T00:39:15.562Z,100481.06
2023-02-25T00:41:43.470Z,100480.44
2023-02-25T00:44:11.344Z,100485.13
2023-02-25T00:46:39.454Z,100484.00
2023-02-25T00:49:07.600Z,100487.09
2023-02-25T00:51:35.595Z,100488.91
2023-02-25T00:54:03.500Z,100494.84
2023-02-25T00:56:32.833Z,100489.97
2023-02-25T00:59:00.799Z,100497.50
2023-02-25T01:01:31.293Z,100496.09
2023-02-25T01:03:59.346Z,100497.25
2023-02-25T01:06:29.321Z,100493.69
2023-02-25T01:09:00.430Z,100501.03
2023-02-25T01:11:30.943Z,100497.72
2023-02-25T01:14:02.290Z,100507.47
2023-02-25T01:16:32.384Z,100517.44
2023-02-25T01:19:02.727Z,100501.41
2023-02-25T01:21:32.655Z,100501.09
2023-02-25T01:24:03.173Z,100499.47
2023-02-25T01:26:35.149Z,100506.59
2023-02-25T01:29:07.687Z,100501.38
2023-02-25T01:31:35.912Z,100494.81
2023-02-25T01:34:05.125Z,100506.16
2023-02-25T01:36:34.125Z,100509.59
2023-02-25T01:39:02.695Z,100518.25
2023-02-25T01:41:32.567Z,100518.72
2023-02-25T01:44:08.335Z,100525.81
2023-02-25T01:46:36.625Z,100525.56
2023-02-25T01:49:07.671Z,100520.28
2023-02-25T01:51:36.999Z,100524.91
2023-02-25T01:54:07.203Z,100520.84
2023-02-25T01:56:37.330Z,100533.69
2023-02-25T01:59:07.079Z,100530.31
2023-02-25T02:01:39.244Z,100519.63
2023-02-25T02:04:11.614Z,100513.94
2023-02-25T02:06:41.650Z,100530.28
2023-02-25T02:09:13.317Z,100517.50
2023-02-25T02:11:41.867Z,100527.31
2023-02-25T02:14:15.470Z,100530.47
2023-02-25T02:17:16.081Z,100527.16
2023-02-25T02:20:08.941Z,100519.34
2023-02-25T02:22:55.617Z,100524.16
2023-02-25T02:25:55.264Z,100519.56
2023-02-25T02:28:45.542Z,100517.72
2023-02-25T02:31:39.026Z,100518.19
2023-02-25T02:34:17.753Z,100515.56
2023-02-25T02:36:57.379Z,100512.00
2023-02-25T02:39:34.608Z,100512.38
2023-02-25T02:42:21.187Z,100516.72
2023-02-25T02:44:57.107Z,100519.03
2023-02-25T02:47:29.250Z,100529.78
2023-02-25T02:50:01.656Z,100522.16
2023-02-25T02:52:32.269Z,100526.94
2023-02-25T02:55:05.657Z,100526.66
2023-02-25T02:57:36.255Z,100525.59
2023-02-25T03:00:13.765Z,100537.91
2023-02-25T03:02:48.245Z,100536.53
2023-02-25T03:05:18.525Z,100554.53
2023-02-25T03:07:52.098Z,100539.22
2023-02-25T03:10:22.878Z,100545.78
2023-02-25T03:12:50.873Z,100538.25
2023-02-25T03:15:19.125Z,100545.19
2023-02-25T03:17:53.594Z,100554.59
2023-02-25T03:20:30.629Z,100545.38
2023-02-25T03:23:03.558Z,100562.34
2023-02-25T03:25:36.411Z,100559.91
2023-02-25T03:28:16.941Z,100560.66
2023-02-25T03:30:50.617Z,100571.47
2023-02-25T03:33:27.715Z,100560.50
2023-02-25T03:35:58.002Z,100566.91
2023-02-25T03:38:30.044Z,100557.69
2023-02-25T03:41:00.893Z,100555.94
2023-02-25T03:43:33.030Z,100576.38
2023-02-25T03:46:01.752Z,100575.00
2023-02-25T03:48:32.452Z,100586.56
2023-02-25T03:51:06.388Z,100594.81
2023-02-25T03:53:36.632Z,100604.78
2023-02-25T03:56:12.096Z,100608.16
2023-02-25T03:58:44.344Z,100633.19
2023-02-25T04:01:17.242Z,100627.28
2023-02-25T04:03:46.849Z,100634.53
2023-02-25T04:06:16.335Z,100621.56
2023-02-25T04:08:44.721Z,100624.69
2023-02-25T04:11:12.676Z,100624.53
2023-02-25T04:13:42.886Z,100632.06
2023-02-25T04:16:10.832Z,100639.06
2023-02-25T04:18:38.737Z,100643.75
2023-02-25T04:21:10.953Z,100642.66
2023-02-25T04:23:38.824Z,100649.19
2023-02-25T04:26:06.696Z,100650.78
2023-02-25T04:28:34.697Z,100663.72
2023-02-25T04:31:02.850Z,100663.00
2023-02-25T04:33:30.911Z,100659.31
2023-02-25T04:35:58.905Z,100652.22
2023-02-25T04:38:28.232Z,100666.44
2023-02-25T04:40:56.414Z,100645.69
2023-02-25T04:43:24.571Z,100641.84
2023-02-25T04:45:55.919Z,100651.53
2023-02-25T04:48:24.451Z,100649.66
2023-02-25T04:50:52.800Z,100655.78
2023-02-25T04:53:21.113Z,100657.19
2023-02-25T04:55:50.343Z,100655.19
2023-02-25T04:58:18.325Z,100649.75
2023-02-25T05:00:49.446Z,100662.00
2023-02-25T05:03:17.383Z,100659.47
2023-02-25T05:05:45.599Z,100661.75
2023-02-25T05:08:13.527Z,100662.88
2023-02-25T05:10:41.380Z,100662.16
2023-02-25T05:13:10.625Z,100679.53
2023-02-25T05:15:38.556Z,100676.53
2023-02-25T05:18:06.593Z,100680.69
2023-02-25T05:20:34.805Z,100681.94
2023-02-25T05:23:02.778Z,100682.13
2023-02-25T05:25:30.641Z,100700.06
2023-02-25T05:27:58.566Z,100704.75
2023-02-25T05:30:28.468Z,100701.75
2023-02-25T05:32:56.613Z,100713.56
2023-02-25T05:35:24.889Z,100718.41
2023-02-25T05:37:52.775Z,100722.38
2023-02-25T05:40:21.172Z,100722.50
2023-02-25T05:42:49.605Z,100720.53
2023-02-25T05:45:18.249Z,100724.13
2023-02-25T05:47:47.485Z,100711.28
2023-02-25T05:50:15.526Z,100709.03
2023-02-25T05:52:43.511Z,100724.97
2023-02-25T05:55:12.319Z,100724.09
2023-02-25T05:57:40.379Z,100728.09
2023-02-25T06:00:14.768Z,100732.63
2023-02-25T06:02:44.206Z,100735.91
2023-02-25T06:05:14.623Z,100742.59
2023-02-25T06:07:42.727Z,100753.28
2023-02-25T06:10:12.351Z,100765.66
2023-02-25T06:12:40.527Z,100779.56
2023-02-25T06:15:09.684Z,100794.53
2023-02-25T06:17:37.764Z,100796.56
2023-02-25T06:20:07.718Z,100816.88
2023-02-25T06:22:37.123Z,100816.78
2023-02-25T06:25:05.829Z,100800.59
2023-02-25T06:27:34.369Z,100775.91
2023-02-25T06:30:03.428Z,100767.09
2023-02-25T06:32:31.515Z,100773.72
2023-02-25T06:34:59.858Z,100774.72
2023-02-25T06:37:27.753Z,100784.44
2023-02-25T06:39:57.208Z,100791.75
2023-02-25T06:42:25.244Z,100791.06
2023-02-25T06:44:53.485Z,100804.19
2023-02-25T06:47:23.491Z,100809.59
2023-02-25T06:49:51.658Z,100815.19
2023-02-25T06:52:19.543Z,100815.59
2023-02-25T06:54:47.401Z,100815.88
2023-02-25T06:57:16.701Z,100825.13
2023-02-25T06:59:44.621Z,100826.13
2023-02-25T07:02:13.943Z,100824.97
2023-02-25T07:04:44.111Z,100830.53
2023-02-25T07:07:12.628Z,100825.53
2023-02-25T07:09:40.456Z,100834.81
2023-02-25T07:12:08.537Z,100842.19
2023-02-25T07:14:38.066Z,100854.69
2023-02-25T07:17:06.354Z,100853.00
2023-02-25T07:19:34.513Z,100866.53
2023-02-25T07:22:02.838Z,100867.81
2023-02-25T07:24:31.036Z,100874.88
2023-02-25T07:26:58.947Z,100865.34
2023-02-25T07:29:26.973Z,100877.16
2023-02-25T07:31:56.672Z,100870.75
2023-02-25T07:34:24.780Z,100879.19
2023-02-25T07:36:52.829Z,100876.22
2023-02-25T07:39:20.921Z,100891.44
2023-02-25T07:41:49.073Z,100896.75
2023-02-25T07:44:21.434Z,100901.63
2023-02-25T07:46:49.305Z,100901.31
2023-02-25T07:49:18.589Z,100908.72
2023-02-25T07:51:46.715Z,100904.09
2023-02-25T07:54:16.020Z,100907.38
2023-02-25T07:56:44.366Z,100905.84
2023-02-25T07:59:12.371Z,100908.66
2023-02-25T08:01:40.637Z,100908.28
2023-02-25T08:04:10.258Z,100913.28
2023-02-25T08:06:41.434Z,100922.78
2023-02-25T08:09:12.253Z,100936.13
2023-02-25T08:11:41.145Z,100932.94
2023-02-25T08:14:09.031Z,100931.22
2023-02-25T08:16:37.562Z,100928.69
2023-02-25T08:19:06.051Z,100933.22
2023-02-25T08:21:34.955Z,100942.91
2023-02-25T08:24:04.780Z,100944.16
2023-02-25T08:26:32.755Z,100942.19
2023-02-25T08:29:00.646Z,100949.44
2023-02-25T08:31:29.169Z,100951.13
2023-02-25T08:33:59.312Z,100962.03
2023-02-25T08:36:29.395Z,100967.16
2023-02-25T08:38:58.862Z,100974.09
2023-02-25T08:41:29.932Z,100981.00
2023-02-25T08:44:00.296Z,100980.84
2023-02-25T08:46:29.700Z,100986.97
2023-02-25T08:48:58.860Z,101000.03
2023-02-25T08:51:34.054Z,101000.03
2023-02-25T08:54:04.240Z,101004.44
2023-02-25T08:56:35.095Z,101022.66
2023-02-25T08:59:03.258Z,101021.50
2023-02-25T09:01:44.715Z,101018.84
2023-02-25T09:04:13.923Z,101036.88
2023-02-25T09:06:41.950Z,101039.41
2023-02-25T09:09:11.566Z,101050.06
2023-02-25T09:11:41.180Z,101049.97
2023-02-25T09:14:10.060Z,101050.84
2023-02-25T09:16:38.282Z,101054.59
2023-02-25T09:19:06.646Z,101046.34
2023-02-25T09:21:36.068Z,101052.50
2023-02-25T09:24:04.257Z,101061.38
2023-02-25T09:26:32.155Z,101062.50
2023-02-25T09:29:03.866Z,101066.66
2023-02-25T09:31:33.680Z,101069.91
2023-02-25T09:34:04.606Z,101081.41
2023-02-25T09:36:33.351Z,101088.88
2023-02-25T09:39:01.686Z,101083.81
2023-02-25T09:41:34.362Z,101090.34
2023-02-25T09:44:08.447Z,101086.56
2023-02-25T09:46:41.677Z,101105.63
2023-02-25T09:49:16.575Z,101102.47
2023-02-25T09:51:48.068Z,101111.00
2023-02-25T09:54:22.201Z,101110.66
2023-02-25T09:56:51.281Z,101119.78
2023-02-25T09:59:22.352Z,101120.75
2023-02-25T10:01:55.326Z,101119.66
2023-02-25T10:04:31.713Z,101137.97
2023-02-25T10:07:06.914Z,101139.22
2023-02-25T10:09:45.522Z,101133.50
2023-02-25T10:12:22.195Z,101140.50
2023-02-25T10:15:18.777Z,101142.28
2023-02-25T10:18:00.573Z,101137.78
2023-02-25T10:20:53.841Z,101142.75
2023-02-25T10:23:35.776Z,101144.00
2023-02-25T10:26:11.168Z,101153.88
2023-02-25T10:28:42.455Z,101143.13
2023-02-25T10:31:16.673Z,101158.06
2023-02-25T10:33:47.392Z,101167.69
2023-02-25T10:36:17.427Z,101167.75
2023-02-25T10:38:48.311Z,101173.69
2023-02-25T10:41:16.408Z,101176.00
2023-02-25T10:43:46.179Z,101185.19
2023-02-25T10:46:20.940Z,101190.38
2023-02-25T10:48:57.440Z,101193.75
2023-02-25T10:51:27.492Z,101198.97
2023-02-25T10:54:08.454Z,101205.84
2023-02-25T10:56:42.724Z,101200.94
2023-02-25T10:59:28.397Z,101214.22
2023-02-25T11:02:01.256Z,101219.50
2023-02-25T11:04:35.840Z,101221.34
2023-02-25T11:07:25.768Z,101224.59
2023-02-25T11:10:09.232Z,101226.97
2023-02-25T11:12:41.404Z,101231.38
2023-02-25T11:15:43.749Z,101239.44
2023-02-25T11:18:22.439Z,101240.50
2023-02-25T11:20:54.590Z,101249.63
2023-02-25T11:23:28.354Z,101259.03
2023-02-25T11:25:57.491Z,101255.81
2023-02-25T11:28:31.606Z,101246.38
2023-02-25T11:31:09.496Z,101251.25
2023-02-25T11:33:43.530Z,101251.84
2023-02-25T11:36:13.084Z,101257.19
2023-02-25T11:38:43.117Z,101248.97
2023-02-25T11:41:19.678Z,101252.78
2023-02-25T11:43:48.823Z,101261.06
2023-02-25T11:46:23.146Z,101249.53
2023-02-25T11:48:55.924Z,101251.41
2023-02-25T11:51:27.818Z,101258.03
2023-02-25T11:54:15.316Z,101259.38
2023-02-25T11:56:48.693Z,101260.44
2023-02-25T11:59:32.508Z,101261.84
2023-02-25T12:02:07.975Z,101265.44
2023-02-25T12:04:55.594Z,101261.50
2023-02-25T12:08:12.976Z,101260.56
2023-02-25T12:11:29.639Z,101248.81
2023-02-25T12:14:20.593Z,101262.75
2023-02-25T12:17:21.405Z,101262.22
2023-02-25T12:20:17.890Z,101262.09
2023-02-25T12:23:27.368Z,101269.97
2023-02-25T12:26:03.829Z,101269.88
2023-02-25T12:28:45.679Z,101260.25
2023-02-25T12:31:27.839Z,101276.69
2023-02-25T12:34:17.467Z,101285.50
2023-02-25T12:37:08.072Z,101275.78
2023-02-25T12:39:49.275Z,101269.09
2023-02-25T12:42:42.269Z,101285.59
2023-02-25T12:45:40.315Z,101282.88
2023-02-25T12:48:35.206Z,101289.00
2023-02-25T12:51:40.668Z,101280.53
2023-02-25T12:54:29.966Z,101280.22
2023-02-25T12:57:19.616Z,101283.88
2023-02-25T13:00:07.871Z,101291.44
2023-02-25T13:02:50.163Z,101304.88
2023-02-25T13:05:43.770Z,101308.56
2023-02-25T13:08:29.630Z,101300.69
2023-02-25T13:11:07.939Z,101308.28
2023-02-25T13:13:57.621Z,101308.88
2023-02-25T13:16:36.677Z,101318.19
2023-02-25T13:19:21.359Z,101313.06
2023-02-25T13:21:59.809Z,101314.22
2023-02-25T13:24:42.384Z,101301.53
2023-02-25T13:27:28.717Z,101315.09
2023-02-25T13:30:21.647Z,101311.28
2023-02-25T13:33:04.051Z,101324.41
2023-02-25T13:35:44.433Z,101319.25
2023-02-25T13:38:29.354Z,101318.84
2023-02-25T13:41:12.738Z,101330.13
2023-02-25T13:44:08.627Z,101336.28
2023-02-25T13:47:06.374Z,101327.97
2023-02-25T13:50:22.805Z,101327.44
2023-02-25T13:53:13.013Z,101341.72
2023-02-25T13:55:55.760Z,101344.44
2023-02-25T13:58:37.446Z,101347.91
2023-02-25T14:01:33.781Z,101353.75
2023-02-25T14:04:36.260Z,101359.44
2023-02-25T14:07:24.645Z,101360.88
2023-02-25T14:10:04.188Z,101368.88
2023-02-25T14:12:45.694Z,101369.75
2023-02-25T14:15:25.860Z,101359.28
2023-02-25T14:18:10.893Z,101359.00
2023-02-25T14:20:50.728Z,101374.44
2023-02-25T14:27:36.908Z,101376.22
2023-02-25T14:30:18.210Z,101385.50
2023-02-25T14:33:08.207Z,101390.31
2023-02-25T14:35:52.457Z,101406.72
2023-02-25T14:38:28.650Z,101390.13
2023-02-25T14:41:07.549Z,101394.31
2023-02-25T14:43:37.210Z,101390.66
2023-02-25T14:46:17.837Z,101393.78
2023-02-25T14:48:56.033Z,101402.19
2023-02-25T14:52:10.626Z,101407.34
2023-02-25T14:54:56.865Z,101413.03
2023-02-25T14:57:49.037Z,101416.91
2023-02-25T15:00:35.838Z,101407.63
2023-02-25T15:03:22.376Z,101412.34
2023-02-25T15:06:06.634Z,101425.75
2023-02-25T15:08:54.572Z,101416.22
2023-02-25T15:11:40.012Z,101426.22
2023-02-25T15:14:51.707Z,101418.25
2023-02-25T15:17:49.409Z,101431.81
2023-02-25T15:20:27.838Z,101428.56
2023-02-25T15:23:07.320Z,101437.72
2023-02-25T15:25:49.875Z,101438.72
2023-02-25T15:28:42.354Z,101437.56
2023-02-25T15:31:38.825Z,101439.84
2023-02-25T15:34:39.603Z,101437.63
2023-02-25T15:37:30.161Z,101434.88
2023-02-25T15:40:25.350Z,101431.47
2023-02-25T15:42:55.046Z,101439.38
2023-02-25T15:45:47.446Z,101441.53
2023-02-25T15:48:31.544Z,101449.25
2023-02-25T15:51:01.169Z,101452.28
2023-02-25T15:53:42.191Z,101459.00
2023-02-25T15:56:31.422Z,101460.88
2023-02-25T15:59:00.553Z,101458.28
2023-02-25T16:01:43.499Z,101464.28
2023-02-25T16:04:48.799Z,101479.22
2023-02-25T16:07:20.884Z,101472.06
2023-02-25T16:09:57.043Z,101477.91
2023-02-25T16:12:27.852Z,101482.34
2023-02-25T16:14:58.937Z,101483.00
2023-02-25T16:17:31.923Z,101480.09
2023-02-25T16:20:09.799Z,101483.41
2023-02-25T16:22:38.606Z,101488.41
2023-02-25T16:25:15.225Z,101505.41
2023-02-25T16:27:56.127Z,101510.22
2023-02-25T16:30:35.449Z,101497.94
2023-02-25T16:33:16.209Z,101515.06
2023-02-25T16:35:55.418Z,101516.53
2023-02-25T16:38:37.990Z,101508.28
2023-02-25T16:41:06.718Z,101511.94
2023-02-25T16:43:39.707Z,101519.53
2023-02-25T16:46:10.842Z,101511.94
2023-02-25T16:48:47.972Z,101522.03
2023-02-25T16:51:24.275Z,101523.97
2023-02-25T16:53:57.955Z,101522.72
2023-02-25T16:56:27.939Z,101534.94
2023-02-25T16:59:05.792Z,101525.44
2023-02-25T17:01:37.400Z,101534.88
2023-02-25T17:04:15.660Z,101537.94
2023-02-25T17:06:44.199Z,101535.59
2023-02-25T17:09:24.589Z,101541.63
2023-02-25T17:11:56.766Z,101545.03
2023-02-25T17:14:30.584Z,101555.00
2023-02-25T17:16:59.342Z,101556.47
2023-02-25T17:19:27.851Z,101546.59
2023-02-25T17:21:58.695Z,101553.31
2023-02-25T17:24:29.684Z,101554.34
2023-02-25T17:26:58.475Z,101565.22
2023-02-25T17:29:35.867Z,101561.06
2023-02-25T17:32:14.648Z,101572.75
2023-02-25T17:34:43.444Z,101573.03
2023-02-25T17:37:14.152Z,101567.72
2023-02-25T17:39:44.287Z,101578.75
2023-02-25T17:42:33.794Z,101584.41
2023-02-25T17:45:05.253Z,101575.91
2023-02-25T17:47:35.747Z,101579.97
2023-02-25T17:50:22.779Z,101587.75
2023-02-25T17:52:51.657Z,101582.22
2023-02-25T17:55:27.882Z,101591.16
2023-02-25T17:58:00.619Z,101585.63
2023-02-25T18:00:32.806Z,101596.38
2023-02-25T18:03:18.888Z,101595.09
2023-02-25T18:05:52.190Z,101599.88
2023-02-25T18:08:22.061Z,101601.91
2023-02-25T18:10:55.273Z,101606.72
2023-02-25T18:13:28.478Z,101612.97
2023-02-25T18:16:29.249Z,101611.22
2023-02-25T18:18:59.967Z,101617.03
2023-02-25T18:21:28.807Z,101622.22
2023-02-25T18:24:02.245Z,101619.13
2023-02-25T18:26:30.316Z,101626.66
2023-02-25T18:28:58.557Z,101624.97
2023-02-25T18:31:28.901Z,101624.19
2023-02-25T18:33:57.015Z,101635.16
2023-02-25T18:36:27.954Z,101629.25
2023-02-25T18:39:01.647Z,101630.25
2023-02-25T18:41:29.692Z,101628.75
2023-02-25T18:43:57.657Z,101635.31
2023-02-25T18:46:25.849Z,101638.28
2023-02-25T18:48:55.784Z,101633.94
2023-02-25T18:51:24.005Z,101647.72
2023-02-25T18:53:52.031Z,101646.78
2023-02-25T18:56:20.669Z,101650.09
2023-02-25T18:58:49.286Z,101652.09
2023-02-25T19:01:23.472Z,101643.19
2023-02-25T19:03:53.816Z,101647.75
2023-02-25T19:06:23.457Z,101660.31
2023-02-25T19:08:51.595Z,101650.69
2023-02-25T19:11:22.398Z,101661.44
2023-02-25T19:13:50.874Z,101650.81
2023-02-25T19:16:19.406Z,101657.63
2023-02-25T19:18:48.275Z,101659.09
2023-02-25T19:21:18.353Z,101662.06
2023-02-25T19:23:51.662Z,101658.13
2023-02-25T19:26:20.167Z,101661.00
2023-02-25T19:28:48.465Z,101660.88
2023-02-25T19:31:17.877Z,101661.25
2023-02-25T19:33:46.123Z,101667.38
2023-02-25T19:36:14.167Z,101667.75
2023-02-25T19:38:42.131Z,101665.88
2023-02-25T19:41:13.712Z,101672.53
2023-02-25T19:43:41.923Z,101671.53
2023-02-25T19:46:10.846Z,101676.34
2023-02-25T19:48:39.009Z,101683.13
2023-02-25T19:51:07.908Z,101682.75
2023-02-25T19:53:36.575Z,101685.09
2023-02-25T19:56:05.434Z,101683.47
2023-02-25T19:58:35.159Z,101693.22
2023-02-25T20:01:05.284Z,101690.88
2023-02-25T20:03:33.399Z,101694.56
2023-02-25T20:06:06.656Z,101702.69
2023-02-25T20:08:35.652Z,101707.09
2023-02-25T20:11:03.659Z,101700.59
2023-02-25T20:13:31.687Z,101698.72
2023-02-25T20:16:02.668Z,101704.41
2023-02-25T20:18:30.705Z,101702.34
2023-02-25T20:20:59.361Z,101707.13
2023-02-25T20:23:28.097Z,101700.72
2023-02-25T20:26:05.055Z,101712.53
2023-02-25T20:28:34.586Z,101713.28
2023-02-25T20:31:10.050Z,101710.53
2023-02-25T20:33:38.902Z,101718.91
2023-02-25T20:36:19.814Z,101724.19
2023-02-25T20:39:01.425Z,101723.34
2023-02-25T20:41:30.918Z,101719.16
2023-02-25T20:43:59.442Z,101731.34
2023-02-25T20:46:30.444Z,101724.22
2023-02-25T20:48:59.266Z,101720.66
2023-02-25T20:51:27.899Z,101718.56
2023-02-25T20:53:56.867Z,101732.34
2023-02-25T20:56:28.013Z,101727.53
2023-02-25T20:58:56.168Z,101729.75
2023-02-25T21:01:24.228Z,101732.31
2023-02-25T21:03:55.138Z,101734.97
2023-02-25T21:06:26.101Z,101737.19
2023-02-25T21:08:55.956Z,101740.72
2023-02-25T21:11:25.476Z,101747.81
2023-02-25T21:13:55.078Z,101755.53
2023-02-25T21:16:24.964Z,101761.34
2023-02-25T21:18:55.402Z,101771.03
2023-02-25T21:21:23.815Z,101774.03
2023-02-25T21:23:52.645Z,101775.41
2023-02-25T21:26:20.857Z,101779.47
2023-02-25T21:28:49.161Z,101777.25
2023-02-25T21:31:18.323Z,101782.81
2023-02-25T21:33:46.639Z,101783.19
2023-02-25T21:36:16.045Z,101789.50
2023-02-25T21:38:45.846Z,101789.69
2023-02-25T21:41:16.386Z,101800.75
2023-02-25T21:43:44.733Z,101801.22
2023-02-25T21:46:16.295Z,101793.81
2023-02-25T21:48:46.814Z,101805.47
2023-02-25T21:51:19.119Z,101810.81
2023-02-25T21:53:47.567Z,101814.66
2023-02-25T21:56:17.755Z,101831.25
2023-02-25T21:58:46.583Z,101823.72
2023-02-25T22:01:17.116Z,101839.38
2023-02-25T22:03:46.993Z,101844.19
2023-02-25T22:06:16.758Z,101831.41
2023-02-25T22:08:46.553Z,101845.25
2023-02-25T22:11:16.073Z,101846.91
2023-02-25T22:13:44.450Z,101848.84
2023-02-25T22:16:13.703Z,101860.19
2023-02-25T22:18:41.875Z,101846.59
2023-02-25T22:21:12.872Z,101863.84
2023-02-25T22:23:44.160Z,101861.44
2023-02-25T22:26:13.860Z,101863.63
2023-02-25T22:28:42.657Z,101861.19
2023-02-25T22:31:12.171Z,101862.41
2023-02-25T22:33:40.618Z,101865.53
2023-02-25T22:36:09.866Z,101859.50
2023-02-25T22:38:39.393Z,101864.66
2023-02-25T22:41:13.791Z,101864.84
2023-02-25T22:43:41.699Z,101860.28
2023-02-25T22:46:11.970Z,101858.28
2023-02-25T22:48:42.007Z,101865.75
2023-02-25T22:51:11.317Z,101869.19
2023-02-25T22:53:40.961Z,101879.97
2023-02-25T22:56:11.979Z,101878.78
2023-02-25T22:58:40.789Z,101883.91
2023-02-25T23:01:09.563Z,101886.41
2023-02-25T23:03:38.459Z,101884.53
2023-02-25T23:06:07.645Z,101901.31
2023-02-25T23:08:36.304Z,101903.41
2023-02-25T23:11:14.972Z,101911.94
2023-02-25T23:13:47.422Z,101915.41
2023-02-25T23:16:16.799Z,101918.63
2023-02-25T23:18:45.859Z,101920.91
2023-02-25T23:21:18.921Z,101921.47
2023-02-25T23:23:48.267Z,101920.91
2023-02-25T23:26:23.426Z,101929.53
2023-02-25T23:28:55.918Z,101924.22
2023-02-25T23:31:26.913Z,101936.31
2023-02-25T23:33:57.481Z,101931.66
2023-02-25T23:36:27.112Z,101935.50
2023-02-25T23:38:56.884Z,101946.75
2023-02-25T23:41:27.379Z,101951.34
2023-02-25T23:43:56.436Z,101943.47
2023-02-25T23:46:26.338Z,101952.69
2023-02-25T23:48:56.236Z,101951.59
2023-02-25T23:51:25.038Z,101956.03
2023-02-25T23:53:54.459Z,101954.94
2023-02-25T23:56:23.508Z,101954.28
2023-02-25T23:58:54.135Z,101966.50
